Shoryu Maru — JD2864 — position and weather

sailwx.info

Track history (hours):
 
Tides and Currents Weather Stations Pressure Air Temp Water Temp Dewpoint Dewpoint Depression Visibility Wind Speed Wind Dir Waves Ship Positions

Shoryu Maru

Last reported at 2018-Feb-23 19:49 UTC. Time now 2018-Feb-24 10:18 UTC.
Position N 34°29' E 138°03'.

Length 68 m; draft 3.9 m.

Type: Tanker. MMSI: 431000689.

Date/timePositionNaut miles runAvg speedWind from/ knotsBaromVisibWave heightAir tempDewpointWater temp
2018-Feb-23 19:49N 34°29' E 138°03'1811.2
2018-Feb-23 18:11N 34°32' E 138°25'211.9
2018-Feb-23 18:00N 34°33' E 138°27'612.0
2018-Feb-23 17:30N 34°34' E 138°35'811.8
2018-Feb-23 16:49N 34°34' E 138°44'411.4
2018-Feb-23 16:30N 34°35' E 138°49'612.0
2018-Feb-23 16:00N 34°36' E 138°56'611.8
2018-Feb-23 15:30N 34°40' E 139°01'712.4
2018-Feb-23 14:54N 34°46' E 139°07'811.5
2018-Feb-23 14:12N 34°52' E 139°13'311.1
2018-Feb-23 13:55N 34°54' E 139°16'511.2
2018-Feb-23 13:27N 34°58' E 139°20'610.7
2018-Feb-23 12:55N 35°01' E 139°26'511.0
2018-Feb-23 12:30N 35°03' E 139°31'611.8
2018-Feb-23 12:01N 35°05' E 139°37'611.6
2018-Feb-23 11:30N 35°08' E 139°43'611.6
2018-Feb-23 11:00N 35°14' E 139°46'611.2
2018-Feb-23 10:30N 35°19' E 139°43'511.0
2018-Feb-23 10:00N 35°24' E 139°43'611.5
2018-Feb-23 09:30N 35°29' E 139°47'2 4.8
2018-Feb-23 09:00N 35°31' E 139°46'0 0.0
2018-Feb-23 08:30N 35°31' E 139°46'0 0.0
2018-Feb-23 08:00N 35°31' E 139°46'0 0.0
2018-Feb-23 07:30N 35°31' E 139°46'0 0.0
2018-Feb-23 07:00N 35°31' E 139°46'0 0.0
2018-Feb-23 06:30N 35°31' E 139°46'0 0.0
2018-Feb-23 06:00N 35°31' E 139°46'0 0.0
2018-Feb-23 05:30N 35°31' E 139°46'0 0.0
2018-Feb-23 05:01N 35°31' E 139°46'2 3.4
2018-Feb-23 04:30N 35°30' E 139°48'1 1.9
2018-Feb-23 04:00N 35°29' E 139°49'0 0.0
2018-Feb-23 03:30N 35°29' E 139°49'0 0.0
2018-Feb-23 02:46N 35°29' E 139°49'0 0.0
2018-Feb-23 02:13N 35°29' E 139°49'0 0.0
2018-Feb-23 01:52N 35°29' E 139°49'0 0.0
2018-Feb-23 01:16N 35°29' E 139°49'0 0.0
2018-Feb-23 00:58N 35°29' E 139°49'0 0.0
2018-Feb-23 00:28N 35°29' E 139°49'0 0.0
2018-Feb-22 23:43N 35°29' E 139°49'0 0.0
2018-Feb-22 23:25N 35°29' E 139°49'0 0.0
2018-Feb-22 22:58N 35°29' E 139°49'0 0.0
2018-Feb-22 22:19N 35°29' E 139°49'0 0.0
2018-Feb-22 21:58N 35°29' E 139°49'0 0.0
2018-Feb-22 21:22N 35°29' E 139°49'0 0.0
2018-Feb-22 20:37N 35°29' E 139°49'0 0.0
2018-Feb-22 20:28N 35°29' E 139°49'0 0.0
2018-Feb-22 19:58N 35°29' E 139°49'0 0.0
2018-Feb-22 19:19N 35°29' E 139°49'0 0.0
2018-Feb-22 18:58N 35°29' E 139°49'0 0.0
2018-Feb-22 18:28N 35°29' E 139°49'0 0.0
2018-Feb-22 17:58N 35°29' E 139°49'0 0.0
2018-Feb-22 17:22N 35°29' E 139°49'0 0.0
2018-Feb-22 16:43N 35°29' E 139°49'0 0.0
2018-Feb-22 16:28N 35°29' E 139°49'0 0.6
2018-Feb-22 16:00N 35°29' E 139°49'611.5
2018-Feb-22 15:30N 35°24' E 139°46'611.3
2018-Feb-22 15:00N 35°18' E 139°44'611.3
2018-Feb-22 14:30N 35°13' E 139°47'612.1
2018-Feb-22 14:00N 35°07' E 139°46'612.4
2018-Feb-22 13:30N 35°01' E 139°45'611.6
2018-Feb-22 12:56N 34°55' E 139°47'910.2
2018-Feb-22 12:03N 34°54' E 139°58'111.7
2018-Feb-22 11:57N 34°54' E 139°59'711.9
2018-Feb-22 11:23N 34°58' E 140°06'511.5
2018-Feb-22 10:57N 35°01' E 140°11'22 0.8
2018-Feb-21 08:26N 35°02' E 139°43'510.8
2018-Feb-21 08:00N 35°07' E 139°45'611.2
2018-Feb-21 07:30N 35°12' E 139°46'611.2
2018-Feb-21 07:01N 35°17' E 139°45'611.1
2018-Feb-21 06:30N 35°22' E 139°42'611.1
2018-Feb-21 06:01N 35°27' E 139°46'611.8
2018-Feb-21 05:30N 35°30' E 139°52'612.0
2018-Feb-21 05:00N 35°32' E 139°59'3 6.3
2018-Feb-21 04:29N 35°32' E 140°03'0 0.0
2018-Feb-21 03:44N 35°32' E 140°03'0 0.0
2018-Feb-21 03:26N 35°32' E 140°03'0 0.0
2018-Feb-21 02:44N 35°32' E 140°03'0 0.0
2018-Feb-21 02:26N 35°32' E 140°03'0 0.0
2018-Feb-21 01:56N 35°32' E 140°03'0 0.0
2018-Feb-21 01:26N 35°32' E 140°03'0 0.0
2018-Feb-21 00:56N 35°32' E 140°03'0 0.0
2018-Feb-21 00:26N 35°32' E 140°03'0 0.3
2018-Feb-20 23:48N 35°32' E 140°03'1 3.9
2018-Feb-20 23:30N 35°32' E 140°02'5 9.3
2018-Feb-20 23:00N 35°30' E 139°57'2 0.7
2018-Feb-20 20:18N 35°29' E 139°55'0 0.0
2018-Feb-20 19:48N 35°29' E 139°55'0 0.0
2018-Feb-20 16:54N 35°29' E 139°55'0 0.0
2018-Feb-20 15:09N 35°29' E 139°55'0 0.0
2018-Feb-20 14:45N 35°29' E 139°55'0 0.2
2018-Feb-20 14:27N 35°29' E 139°55'0 0.0
2018-Feb-20 14:00N 35°29' E 139°55'0 0.0
2018-Feb-20 13:24N 35°29' E 139°55'0 0.0
2018-Feb-20 12:54N 35°29' E 139°55'0 0.0
2018-Feb-20 12:30N 35°29' E 139°55'0 0.0
2018-Feb-20 11:57N 35°29' E 139°55'0 0.0
2018-Feb-20 11:27N 35°29' E 139°55'0 0.0
2018-Feb-20 11:00N 35°29' E 139°55'0 0.1
2018-Feb-20 10:30N 35°29' E 139°55'0 0.0
2018-Feb-20 09:54N 35°29' E 139°55'0 0.0
2018-Feb-20 09:21N 35°29' E 139°55'0 0.0
2018-Feb-20 09:00N 35°29' E 139°55'0 0.0
2018-Feb-20 08:30N 35°29' E 139°55'0 0.1
2018-Feb-20 07:51N 35°29' E 139°55'0 0.0
2018-Feb-20 07:21N 35°29' E 139°55'0 0.0
2018-Feb-20 06:39N 35°29' E 139°55'0 0.0
2018-Feb-20 06:24N 35°29' E 139°55'0 0.0
2018-Feb-20 05:39N 35°29' E 139°55'0 0.2
2018-Feb-20 05:24N 35°29' E 139°55'0 0.0
2018-Feb-20 04:48N 35°29' E 139°55'0 0.0
2018-Feb-20 04:27N 35°29' E 139°55'0 0.0
2018-Feb-20 04:00N 35°29' E 139°55'0 0.1
2018-Feb-20 03:27N 35°29' E 139°55'0 0.3
2018-Feb-20 03:00N 35°29' E 139°55'4 7.4
2018-Feb-20 02:27N 35°28' E 140°00'0 0.0
2018-Feb-20 02:00N 35°28' E 140°00'0 0.0
2018-Feb-20 01:30N 35°28' E 140°00'0 0.0
2018-Feb-20 01:00N 35°28' E 140°00'0 0.0
2018-Feb-20 00:30N 35°28' E 140°00'0 0.0
2018-Feb-20 00:00N 35°28' E 140°00'2 3.6
2018-Feb-19 23:30N 35°29' E 139°58'2 0.7
2018-Feb-19 20:30N 35°29' E 139°56'0 0.0
2018-Feb-19 19:45N 35°29' E 139°56'0 0.0
2018-Feb-19 17:30N 35°29' E 139°56'0 0.0
2018-Feb-19 16:54N 35°29' E 139°56'0 0.1
2018-Feb-19 16:27N 35°29' E 139°56'0 0.0
2018-Feb-19 15:48N 35°29' E 139°56'0 0.0
2018-Feb-19 15:30N 35°29' E 139°56'0 0.0
2018-Feb-19 15:00N 35°29' E 139°56'0 0.0
2018-Feb-19 14:27N 35°29' E 139°56'0 0.0
2018-Feb-19 13:57N 35°29' E 139°56'0 0.0
2018-Feb-19 13:30N 35°29' E 139°56'0 0.0
2018-Feb-19 12:57N 35°29' E 139°56'0 0.0
2018-Feb-19 12:30N 35°29' E 139°56'0 0.0
2018-Feb-19 11:54N 35°29' E 139°56'0 0.0
2018-Feb-19 11:30N 35°29' E 139°56'0 0.0
2018-Feb-19 10:48N 35°29' E 139°56'0 0.0
2018-Feb-19 10:30N 35°29' E 139°56'0 0.0
2018-Feb-19 10:00N 35°29' E 139°56'0 0.0
2018-Feb-19 09:30N 35°29' E 139°56'0 0.1
2018-Feb-19 08:45N 35°29' E 139°56'0 0.0
2018-Feb-19 08:12N 35°29' E 139°56'0 0.0
2018-Feb-19 08:00N 35°29' E 139°56'0 0.0
2018-Feb-19 07:30N 35°29' E 139°56'0 0.0
2018-Feb-19 07:00N 35°29' E 139°56'0 0.0
2018-Feb-19 06:24N 35°29' E 139°56'0 0.1
2018-Feb-19 05:03N 35°29' E 139°56'0 0.1
2018-Feb-19 05:00N 35°29' E 139°56'0 0.0
2018-Feb-19 04:30N 35°29' E 139°56'0 0.8
2018-Feb-19 03:58N 35°29' E 139°56'511.7
2018-Feb-19 03:30N 35°32' E 140°02'1 0.4
2018-Feb-18 23:53N 35°32' E 140°03'1 3.7
2018-Feb-18 23:29N 35°32' E 140°02'511.0
2018-Feb-18 23:00N 35°30' E 139°56'1 0.2
2018-Feb-18 16:47N 35°29' E 139°55'0 0.0
2018-Feb-18 16:17N 35°29' E 139°55'0 0.0
2018-Feb-18 06:59N 35°29' E 139°55'0 0.0
2018-Feb-18 06:29N 35°29' E 139°55'0 0.0
2018-Feb-18 05:05N 35°29' E 139°55'0 0.1
2018-Feb-18 04:44N 35°29' E 139°55'0 0.0
2018-Feb-18 04:29N 35°29' E 139°55'0 0.0
2018-Feb-18 00:44N 35°29' E 139°55'0 0.0
2018-Feb-17 23:23N 35°29' E 139°55'0 0.0
2018-Feb-17 22:11N 35°29' E 139°55'0 0.0
2018-Feb-17 21:47N 35°29' E 139°55'0 0.0
2018-Feb-17 20:02N 35°29' E 139°55'0 0.0
2018-Feb-17 19:44N 35°29' E 139°55'0 0.0
2018-Feb-17 18:32N 35°29' E 139°55'0 0.0
2018-Feb-17 18:02N 35°29' E 139°55'0 0.0
2018-Feb-17 17:53N 35°29' E 139°55'0 0.1
2018-Feb-17 17:25N 35°29' E 139°55'3 8.2
2018-Feb-17 17:00N 35°28' E 139°51'611.4
2018-Feb-17 16:31N 35°24' E 139°46'611.1
2018-Feb-17 16:00N 35°18' E 139°45'510.6
2018-Feb-17 15:30N 35°13' E 139°47'510.8
2018-Feb-17 15:00N 35°08' E 139°46'1510.1
2018-Feb-17 13:32N 34°53' E 139°47'010.6
2018-Feb-17 13:29N 34°53' E 139°48'910.4
2018-Feb-17 12:39N 34°53' E 139°58'410.2
2018-Feb-17 12:12N 34°56' E 140°02'310.8
2018-Feb-17 11:56N 34°58' E 140°05'18 0.6
2018-Feb-16 08:32N 35°03' E 139°44'012.1
2018-Feb-16 08:30N 35°03' E 139°45'611.9
2018-Feb-16 08:00N 35°09' E 139°45'611.8
2018-Feb-16 07:30N 35°15' E 139°46'611.2
2018-Feb-16 07:00N 35°20' E 139°43'510.8
2018-Feb-16 06:31N 35°25' E 139°44'611.7
2018-Feb-16 06:00N 35°28' E 139°49'611.7
2018-Feb-16 05:29N 35°31' E 139°56'611.7
2018-Feb-16 05:00N 35°32' E 140°03'1 1.0
2018-Feb-16 04:29N 35°32' E 140°03'0 0.0
2018-Feb-16 04:00N 35°32' E 140°03'0 0.0
2018-Feb-15 23:45N 35°32' E 140°03'0 0.9
2018-Feb-15 23:28N 35°32' E 140°03'4 8.0
2018-Feb-15 23:00N 35°31' E 139°59'5 8.2
2018-Feb-15 22:27N 35°28' E 139°54'0 0.0
2018-Feb-15 21:54N 35°28' E 139°54'0 0.0
2018-Feb-15 21:30N 35°28' E 139°54'0 0.0
2018-Feb-15 19:39N 35°28' E 139°54'0 0.2
2018-Feb-15 19:24N 35°28' E 139°54'0 0.0
2018-Feb-15 18:54N 35°28' E 139°54'0 0.1
2018-Feb-15 18:27N 35°28' E 139°54'0 0.0
2018-Feb-15 18:00N 35°28' E 139°54'0 0.1
2018-Feb-15 17:24N 35°28' E 139°54'0 0.0
2018-Feb-15 16:48N 35°28' E 139°54'0 0.0
2018-Feb-15 16:27N 35°28' E 139°54'0 0.0
2018-Feb-15 15:48N 35°28' E 139°54'0 0.0
2018-Feb-15 15:24N 35°28' E 139°54'0 0.0
2018-Feb-15 14:54N 35°28' E 139°54'0 0.0
2018-Feb-15 14:30N 35°28' E 139°54'0 0.1
2018-Feb-15 14:00N 35°28' E 139°54'0 0.0
2018-Feb-15 13:30N 35°28' E 139°54'0 0.1
2018-Feb-15 12:48N 35°28' E 139°54'0 0.2
2018-Feb-15 12:30N 35°28' E 139°54'4 7.3
2018-Feb-15 12:00N 35°27' E 139°50'611.3
2018-Feb-15 11:30N 35°23' E 139°46'510.4
2018-Feb-15 11:00N 35°17' E 139°45'510.7
2018-Feb-15 10:30N 35°12' E 139°47'611.6
2018-Feb-15 10:00N 35°07' E 139°46'612.1
2018-Feb-15 09:30N 35°02' E 139°41'713.1
2018-Feb-15 09:00N 34°58' E 139°34'2014.3
2018-Feb-15 07:35N 34°46' E 139°15'213.5
2018-Feb-15 07:27N 34°45' E 139°13'612.8
2018-Feb-15 06:59N 34°41' E 139°08'812.3
2018-Feb-15 06:23N 34°37' E 138°60'2012.5
2018-Feb-15 04:48N 34°31' E 138°37'612.7
2018-Feb-15 04:19N 34°31' E 138°30'412.8
2018-Feb-15 04:00N 34°30' E 138°25'713.5
2018-Feb-15 03:29N 34°29' E 138°16'713.6
2018-Feb-15 03:00N 34°28' E 138°08'713.6
2018-Feb-15 02:29N 34°25' E 138°00'15011.1
2018-Feb-14 13:00N 33°50' E 135°04'612.7
2018-Feb-14 12:31N 33°56' E 135°01'612.6
2018-Feb-14 12:01N 34°02' E 135°00'612.4
2018-Feb-14 11:31N 34°08' E 134°59'612.4
2018-Feb-14 11:00N 34°14' E 134°59'611.9
2018-Feb-14 10:31N 34°20' E 134°59'612.3
2018-Feb-14 10:01N 34°26' E 135°01'612.1
2018-Feb-14 09:30N 34°32' E 135°03'510.1
2018-Feb-14 09:00N 34°37' E 135°01'611.4
2018-Feb-14 08:30N 34°37' E 134°54'612.5
2018-Feb-14 08:00N 34°40' E 134°48'712.6
2018-Feb-14 07:29N 34°43' E 134°41'510.8
2018-Feb-14 07:00N 34°46' E 134°35'0 0.0
2018-Feb-14 06:29N 34°46' E 134°35'0 0.0
2018-Feb-14 03:26N 34°46' E 134°35'1 1.6
2018-Feb-14 03:00N 34°45' E 134°36'0 0.0
2018-Feb-14 01:37N 34°45' E 134°36'0 0.0
2018-Feb-14 01:26N 34°45' E 134°36'3 6.4
2018-Feb-14 01:00N 34°43' E 134°37'612.0
2018-Feb-14 00:30N 34°37' E 134°37'611.9
2018-Feb-14 00:00N 34°31' E 134°37'611.9
2018-Feb-13 23:30N 34°25' E 134°38'611.8
2018-Feb-13 23:00N 34°19' E 134°38'713.4
2018-Feb-13 22:30N 34°13' E 134°41'612.4
2018-Feb-13 22:00N 34°08' E 134°45'612.0
2018-Feb-13 21:31N 34°03' E 134°50'611.8
2018-Feb-13 21:01N 33°59' E 134°55'611.9
2018-Feb-13 20:30N 33°54' E 134°59'  
Track history (hours):
 
Tides and Currents Weather Stations Pressure Air Temp Water Temp Dewpoint Dewpoint Depression Visibility Wind Speed Wind Dir Waves Ship Positions

Shoryu Maru

Last reported at 2018-Feb-23 19:49 UTC. Time now 2018-Feb-24 10:18 UTC.
Position N 34°29' E 138°03'.

Length 68 m; draft 3.9 m.

Type: Tanker. MMSI: 431000689.

Date/timePositionNaut miles runAvg speedWind from/ knotsBaromVisibWave heightAir tempDewpointWater temp
2018-Feb-23 19:49N 34°29' E 138°03'1811.2
2018-Feb-23 18:11N 34°32' E 138°25'211.9
2018-Feb-23 18:00N 34°33' E 138°27'612.0
2018-Feb-23 17:30N 34°34' E 138°35'811.8
2018-Feb-23 16:49N 34°34' E 138°44'411.4
2018-Feb-23 16:30N 34°35' E 138°49'612.0
2018-Feb-23 16:00N 34°36' E 138°56'611.8
2018-Feb-23 15:30N 34°40' E 139°01'712.4
2018-Feb-23 14:54N 34°46' E 139°07'811.5
2018-Feb-23 14:12N 34°52' E 139°13'311.1
2018-Feb-23 13:55N 34°54' E 139°16'511.2
2018-Feb-23 13:27N 34°58' E 139°20'610.7
2018-Feb-23 12:55N 35°01' E 139°26'511.0
2018-Feb-23 12:30N 35°03' E 139°31'611.8
2018-Feb-23 12:01N 35°05' E 139°37'611.6
2018-Feb-23 11:30N 35°08' E 139°43'611.6
2018-Feb-23 11:00N 35°14' E 139°46'611.2
2018-Feb-23 10:30N 35°19' E 139°43'511.0
2018-Feb-23 10:00N 35°24' E 139°43'611.5
2018-Feb-23 09:30N 35°29' E 139°47'2 4.8
2018-Feb-23 09:00N 35°31' E 139°46'0 0.0
2018-Feb-23 08:30N 35°31' E 139°46'0 0.0
2018-Feb-23 08:00N 35°31' E 139°46'0 0.0
2018-Feb-23 07:30N 35°31' E 139°46'0 0.0
2018-Feb-23 07:00N 35°31' E 139°46'0 0.0
2018-Feb-23 06:30N 35°31' E 139°46'0 0.0
2018-Feb-23 06:00N 35°31' E 139°46'0 0.0
2018-Feb-23 05:30N 35°31' E 139°46'0 0.0
2018-Feb-23 05:01N 35°31' E 139°46'2 3.4
2018-Feb-23 04:30N 35°30' E 139°48'1 1.9
2018-Feb-23 04:00N 35°29' E 139°49'0 0.0
2018-Feb-23 03:30N 35°29' E 139°49'0 0.0
2018-Feb-23 02:46N 35°29' E 139°49'0 0.0
2018-Feb-23 02:13N 35°29' E 139°49'0 0.0
2018-Feb-23 01:52N 35°29' E 139°49'0 0.0
2018-Feb-23 01:16N 35°29' E 139°49'0 0.0
2018-Feb-23 00:58N 35°29' E 139°49'0 0.0
2018-Feb-23 00:28N 35°29' E 139°49'0 0.0
2018-Feb-22 23:43N 35°29' E 139°49'0 0.0
2018-Feb-22 23:25N 35°29' E 139°49'0 0.0
2018-Feb-22 22:58N 35°29' E 139°49'0 0.0
2018-Feb-22 22:19N 35°29' E 139°49'0 0.0
2018-Feb-22 21:58N 35°29' E 139°49'0 0.0
2018-Feb-22 21:22N 35°29' E 139°49'0 0.0
2018-Feb-22 20:37N 35°29' E 139°49'0 0.0
2018-Feb-22 20:28N 35°29' E 139°49'0 0.0
2018-Feb-22 19:58N 35°29' E 139°49'0 0.0
2018-Feb-22 19:19N 35°29' E 139°49'0 0.0
2018-Feb-22 18:58N 35°29' E 139°49'0 0.0
2018-Feb-22 18:28N 35°29' E 139°49'0 0.0
2018-Feb-22 17:58N 35°29' E 139°49'0 0.0
2018-Feb-22 17:22N 35°29' E 139°49'0 0.0
2018-Feb-22 16:43N 35°29' E 139°49'0 0.0
2018-Feb-22 16:28N 35°29' E 139°49'0 0.6
2018-Feb-22 16:00N 35°29' E 139°49'611.5
2018-Feb-22 15:30N 35°24' E 139°46'611.3
2018-Feb-22 15:00N 35°18' E 139°44'611.3
2018-Feb-22 14:30N 35°13' E 139°47'612.1
2018-Feb-22 14:00N 35°07' E 139°46'612.4
2018-Feb-22 13:30N 35°01' E 139°45'611.6
2018-Feb-22 12:56N 34°55' E 139°47'910.2
2018-Feb-22 12:03N 34°54' E 139°58'111.7
2018-Feb-22 11:57N 34°54' E 139°59'711.9
2018-Feb-22 11:23N 34°58' E 140°06'511.5
2018-Feb-22 10:57N 35°01' E 140°11'22 0.8
2018-Feb-21 08:26N 35°02' E 139°43'510.8
2018-Feb-21 08:00N 35°07' E 139°45'611.2
2018-Feb-21 07:30N 35°12' E 139°46'611.2
2018-Feb-21 07:01N 35°17' E 139°45'611.1
2018-Feb-21 06:30N 35°22' E 139°42'611.1
2018-Feb-21 06:01N 35°27' E 139°46'611.8
2018-Feb-21 05:30N 35°30' E 139°52'612.0
2018-Feb-21 05:00N 35°32' E 139°59'3 6.3
2018-Feb-21 04:29N 35°32' E 140°03'0 0.0
2018-Feb-21 03:44N 35°32' E 140°03'0 0.0
2018-Feb-21 03:26N 35°32' E 140°03'0 0.0
2018-Feb-21 02:44N 35°32' E 140°03'0 0.0
2018-Feb-21 02:26N 35°32' E 140°03'0 0.0
2018-Feb-21 01:56N 35°32' E 140°03'0 0.0
2018-Feb-21 01:26N 35°32' E 140°03'0 0.0
2018-Feb-21 00:56N 35°32' E 140°03'0 0.0
2018-Feb-21 00:26N 35°32' E 140°03'0 0.3
2018-Feb-20 23:48N 35°32' E 140°03'1 3.9
2018-Feb-20 23:30N 35°32' E 140°02'5 9.3
2018-Feb-20 23:00N 35°30' E 139°57'2 0.7
2018-Feb-20 20:18N 35°29' E 139°55'0 0.0
2018-Feb-20 19:48N 35°29' E 139°55'0 0.0
2018-Feb-20 16:54N 35°29' E 139°55'0 0.0
2018-Feb-20 15:09N 35°29' E 139°55'0 0.0
2018-Feb-20 14:45N 35°29' E 139°55'0 0.2
2018-Feb-20 14:27N 35°29' E 139°55'0 0.0
2018-Feb-20 14:00N 35°29' E 139°55'0 0.0
2018-Feb-20 13:24N 35°29' E 139°55'0 0.0
2018-Feb-20 12:54N 35°29' E 139°55'0 0.0
2018-Feb-20 12:30N 35°29' E 139°55'0 0.0
2018-Feb-20 11:57N 35°29' E 139°55'0 0.0
2018-Feb-20 11:27N 35°29' E 139°55'0 0.0
2018-Feb-20 11:00N 35°29' E 139°55'0 0.1
2018-Feb-20 10:30N 35°29' E 139°55'0 0.0
2018-Feb-20 09:54N 35°29' E 139°55'0 0.0
2018-Feb-20 09:21N 35°29' E 139°55'0 0.0
2018-Feb-20 09:00N 35°29' E 139°55'0 0.0
2018-Feb-20 08:30N 35°29' E 139°55'0 0.1
2018-Feb-20 07:51N 35°29' E 139°55'0 0.0
2018-Feb-20 07:21N 35°29' E 139°55'0 0.0
2018-Feb-20 06:39N 35°29' E 139°55'0 0.0
2018-Feb-20 06:24N 35°29' E 139°55'0 0.0
2018-Feb-20 05:39N 35°29' E 139°55'0 0.2
2018-Feb-20 05:24N 35°29' E 139°55'0 0.0
2018-Feb-20 04:48N 35°29' E 139°55'0 0.0
2018-Feb-20 04:27N 35°29' E 139°55'0 0.0
2018-Feb-20 04:00N 35°29' E 139°55'0 0.1
2018-Feb-20 03:27N 35°29' E 139°55'0 0.3
2018-Feb-20 03:00N 35°29' E 139°55'4 7.4
2018-Feb-20 02:27N 35°28' E 140°00'0 0.0
2018-Feb-20 02:00N 35°28' E 140°00'0 0.0
2018-Feb-20 01:30N 35°28' E 140°00'0 0.0
2018-Feb-20 01:00N 35°28' E 140°00'0 0.0
2018-Feb-20 00:30N 35°28' E 140°00'0 0.0
2018-Feb-20 00:00N 35°28' E 140°00'2 3.6
2018-Feb-19 23:30N 35°29' E 139°58'2 0.7
2018-Feb-19 20:30N 35°29' E 139°56'0 0.0
2018-Feb-19 19:45N 35°29' E 139°56'0 0.0
2018-Feb-19 17:30N 35°29' E 139°56'0 0.0
2018-Feb-19 16:54N 35°29' E 139°56'0 0.1
2018-Feb-19 16:27N 35°29' E 139°56'0 0.0
2018-Feb-19 15:48N 35°29' E 139°56'0 0.0
2018-Feb-19 15:30N 35°29' E 139°56'0 0.0
2018-Feb-19 15:00N 35°29' E 139°56'0 0.0
2018-Feb-19 14:27N 35°29' E 139°56'0 0.0
2018-Feb-19 13:57N 35°29' E 139°56'0 0.0
2018-Feb-19 13:30N 35°29' E 139°56'0 0.0
2018-Feb-19 12:57N 35°29' E 139°56'0 0.0
2018-Feb-19 12:30N 35°29' E 139°56'0 0.0
2018-Feb-19 11:54N 35°29' E 139°56'0 0.0
2018-Feb-19 11:30N 35°29' E 139°56'0 0.0
2018-Feb-19 10:48N 35°29' E 139°56'0 0.0
2018-Feb-19 10:30N 35°29' E 139°56'0 0.0
2018-Feb-19 10:00N 35°29' E 139°56'0 0.0
2018-Feb-19 09:30N 35°29' E 139°56'0 0.1
2018-Feb-19 08:45N 35°29' E 139°56'0 0.0
2018-Feb-19 08:12N 35°29' E 139°56'0 0.0
2018-Feb-19 08:00N 35°29' E 139°56'0 0.0
2018-Feb-19 07:30N 35°29' E 139°56'0 0.0
2018-Feb-19 07:00N 35°29' E 139°56'0 0.0
2018-Feb-19 06:24N 35°29' E 139°56'0 0.1
2018-Feb-19 05:03N 35°29' E 139°56'0 0.1
2018-Feb-19 05:00N 35°29' E 139°56'0 0.0
2018-Feb-19 04:30N 35°29' E 139°56'0 0.8
2018-Feb-19 03:58N 35°29' E 139°56'511.7
2018-Feb-19 03:30N 35°32' E 140°02'1 0.4
2018-Feb-18 23:53N 35°32' E 140°03'1 3.7
2018-Feb-18 23:29N 35°32' E 140°02'511.0
2018-Feb-18 23:00N 35°30' E 139°56'1 0.2
2018-Feb-18 16:47N 35°29' E 139°55'0 0.0
2018-Feb-18 16:17N 35°29' E 139°55'0 0.0
2018-Feb-18 06:59N 35°29' E 139°55'0 0.0
2018-Feb-18 06:29N 35°29' E 139°55'0 0.0
2018-Feb-18 05:05N 35°29' E 139°55'0 0.1
2018-Feb-18 04:44N 35°29' E 139°55'0 0.0
2018-Feb-18 04:29N 35°29' E 139°55'0 0.0
2018-Feb-18 00:44N 35°29' E 139°55'0 0.0
2018-Feb-17 23:23N 35°29' E 139°55'0 0.0
2018-Feb-17 22:11N 35°29' E 139°55'0 0.0
2018-Feb-17 21:47N 35°29' E 139°55'0 0.0
2018-Feb-17 20:02N 35°29' E 139°55'0 0.0
2018-Feb-17 19:44N 35°29' E 139°55'0 0.0
2018-Feb-17 18:32N 35°29' E 139°55'0 0.0
2018-Feb-17 18:02N 35°29' E 139°55'0 0.0
2018-Feb-17 17:53N 35°29' E 139°55'0 0.1
2018-Feb-17 17:25N 35°29' E 139°55'3 8.2
2018-Feb-17 17:00N 35°28' E 139°51'611.4
2018-Feb-17 16:31N 35°24' E 139°46'611.1
2018-Feb-17 16:00N 35°18' E 139°45'510.6
2018-Feb-17 15:30N 35°13' E 139°47'510.8
2018-Feb-17 15:00N 35°08' E 139°46'1510.1
2018-Feb-17 13:32N 34°53' E 139°47'010.6
2018-Feb-17 13:29N 34°53' E 139°48'910.4
2018-Feb-17 12:39N 34°53' E 139°58'410.2
2018-Feb-17 12:12N 34°56' E 140°02'310.8
2018-Feb-17 11:56N 34°58' E 140°05'18 0.6
2018-Feb-16 08:32N 35°03' E 139°44'012.1
2018-Feb-16 08:30N 35°03' E 139°45'611.9
2018-Feb-16 08:00N 35°09' E 139°45'611.8
2018-Feb-16 07:30N 35°15' E 139°46'611.2
2018-Feb-16 07:00N 35°20' E 139°43'510.8
2018-Feb-16 06:31N 35°25' E 139°44'611.7
2018-Feb-16 06:00N 35°28' E 139°49'611.7
2018-Feb-16 05:29N 35°31' E 139°56'611.7
2018-Feb-16 05:00N 35°32' E 140°03'1 1.0
2018-Feb-16 04:29N 35°32' E 140°03'0 0.0
2018-Feb-16 04:00N 35°32' E 140°03'0 0.0
2018-Feb-15 23:45N 35°32' E 140°03'0 0.9
2018-Feb-15 23:28N 35°32' E 140°03'4 8.0
2018-Feb-15 23:00N 35°31' E 139°59'5 8.2
2018-Feb-15 22:27N 35°28' E 139°54'0 0.0
2018-Feb-15 21:54N 35°28' E 139°54'0 0.0
2018-Feb-15 21:30N 35°28' E 139°54'0 0.0
2018-Feb-15 19:39N 35°28' E 139°54'0 0.2
2018-Feb-15 19:24N 35°28' E 139°54'0 0.0
2018-Feb-15 18:54N 35°28' E 139°54'0 0.1
2018-Feb-15 18:27N 35°28' E 139°54'0 0.0
2018-Feb-15 18:00N 35°28' E 139°54'0 0.1
2018-Feb-15 17:24N 35°28' E 139°54'0 0.0
2018-Feb-15 16:48N 35°28' E 139°54'0 0.0
2018-Feb-15 16:27N 35°28' E 139°54'0 0.0
2018-Feb-15 15:48N 35°28' E 139°54'0 0.0
2018-Feb-15 15:24N 35°28' E 139°54'0 0.0
2018-Feb-15 14:54N 35°28' E 139°54'0 0.0
2018-Feb-15 14:30N 35°28' E 139°54'0 0.1
2018-Feb-15 14:00N 35°28' E 139°54'0 0.0
2018-Feb-15 13:30N 35°28' E 139°54'0 0.1
2018-Feb-15 12:48N 35°28' E 139°54'0 0.2
2018-Feb-15 12:30N 35°28' E 139°54'4 7.3
2018-Feb-15 12:00N 35°27' E 139°50'611.3
2018-Feb-15 11:30N 35°23' E 139°46'510.4
2018-Feb-15 11:00N 35°17' E 139°45'510.7
2018-Feb-15 10:30N 35°12' E 139°47'611.6
2018-Feb-15 10:00N 35°07' E 139°46'612.1
2018-Feb-15 09:30N 35°02' E 139°41'713.1
2018-Feb-15 09:00N 34°58' E 139°34'2014.3
2018-Feb-15 07:35N 34°46' E 139°15'213.5
2018-Feb-15 07:27N 34°45' E 139°13'612.8
2018-Feb-15 06:59N 34°41' E 139°08'812.3
2018-Feb-15 06:23N 34°37' E 138°60'2012.5
2018-Feb-15 04:48N 34°31' E 138°37'612.7
2018-Feb-15 04:19N 34°31' E 138°30'412.8
2018-Feb-15 04:00N 34°30' E 138°25'713.5
2018-Feb-15 03:29N 34°29' E 138°16'713.6
2018-Feb-15 03:00N 34°28' E 138°08'713.6
2018-Feb-15 02:29N 34°25' E 138°00'15011.1
2018-Feb-14 13:00N 33°50' E 135°04'612.7
2018-Feb-14 12:31N 33°56' E 135°01'612.6
2018-Feb-14 12:01N 34°02' E 135°00'612.4
2018-Feb-14 11:31N 34°08' E 134°59'612.4
2018-Feb-14 11:00N 34°14' E 134°59'611.9
2018-Feb-14 10:31N 34°20' E 134°59'612.3
2018-Feb-14 10:01N 34°26' E 135°01'612.1
2018-Feb-14 09:30N 34°32' E 135°03'510.1
2018-Feb-14 09:00N 34°37' E 135°01'611.4
2018-Feb-14 08:30N 34°37' E 134°54'612.5
2018-Feb-14 08:00N 34°40' E 134°48'712.6
2018-Feb-14 07:29N 34°43' E 134°41'510.8
2018-Feb-14 07:00N 34°46' E 134°35'0 0.0
2018-Feb-14 06:29N 34°46' E 134°35'0 0.0
2018-Feb-14 03:26N 34°46' E 134°35'1 1.6
2018-Feb-14 03:00N 34°45' E 134°36'0 0.0
2018-Feb-14 01:37N 34°45' E 134°36'0 0.0
2018-Feb-14 01:26N 34°45' E 134°36'3 6.4
2018-Feb-14 01:00N 34°43' E 134°37'612.0
2018-Feb-14 00:30N 34°37' E 134°37'611.9
2018-Feb-14 00:00N 34°31' E 134°37'611.9
2018-Feb-13 23:30N 34°25' E 134°38'611.8
2018-Feb-13 23:00N 34°19' E 134°38'713.4
2018-Feb-13 22:30N 34°13' E 134°41'612.4
2018-Feb-13 22:00N 34°08' E 134°45'612.0
2018-Feb-13 21:31N 34°03' E 134°50'611.8
2018-Feb-13 21:01N 33°59' E 134°55'611.9
2018-Feb-13 20:30N 33°54' E 134°59'  

Dump ship's entire track history